Time;durP1;ratioP1;P1;durP2;ratioP2;P2;SDS_P1;SDS_P2;PMS_P1;PMS_P2;Temp;Humidity;BMP_temperature;BMP_pressure;BME280_temperature;BME280_humidity;BME280_pressure;Samples;Min_cycle;Max_cycle;Signal;HPM_P1;HPM_P2
2021/01/05 00:02:02;;;;;;;17.15;12.80;;;4.20;81.40;;;;;;5014882;28;20064;-80
2021/01/05 00:04:33;;;;;;;18.02;13.45;;;4.20;81.40;;;;;;5032941;28;20026;-79
2021/01/05 00:07:00;;;;;;;15.93;12.98;;;4.20;81.40;;;;;;5015132;28;20399;-80
2021/01/05 00:09:25;;;;;;;16.10;12.57;;;4.20;81.40;;;;;;5017306;28;20049;-83
2021/01/05 00:12:07;;;;;;;18.05;13.80;;;4.20;81.50;;;;;;5034911;28;20363;-83
2021/01/05 00:14:33;;;;;;;19.65;14.73;;;4.20;81.40;;;;;;5052739;28;20382;-83
2021/01/05 00:16:59;;;;;;;20.02;15.07;;;4.20;81.40;;;;;;5050958;28;20033;-83
2021/01/05 00:19:25;;;;;;;21.60;15.73;;;4.20;81.40;;;;;;5042788;28;20083;-83
2021/01/05 00:21:52;;;;;;;17.17;13.70;;;4.10;81.40;;;;;;5034716;28;20051;-83
2021/01/05 00:24:18;;;;;;;21.42;15.65;;;4.10;81.50;;;;;;5034094;28;20048;-83
2021/01/05 00:26:44;;;;;;;20.73;13.98;;;4.10;81.50;;;;;;5052548;28;20498;-83
2021/01/05 00:29:10;;;;;;;16.85;13.32;;;4.10;81.50;;;;;;5017924;28;20039;-83
2021/01/05 00:31:36;;;;;;;17.67;13.30;;;4.10;81.50;;;;;;5052471;28;20025;-83
2021/01/05 00:34:03;;;;;;;15.70;12.20;;;4.10;81.40;;;;;;5001356;28;20518;-83
2021/01/05 00:36:29;;;;;;;17.48;13.25;;;4.10;81.40;;;;;;5051981;28;20032;-83
2021/01/05 00:38:55;;;;;;;17.05;12.30;;;4.10;81.40;;;;;;5020084;23;20049;-87
2021/01/05 00:41:21;;;;;;;18.25;13.75;;;4.10;81.90;;;;;;5034912;28;20035;-87
2021/01/05 00:43:50;;;;;;;17.67;14.35;;;4.10;81.30;;;;;;5035245;28;20027;-87
2021/01/05 00:46:16;;;;;;;;;;;4.10;81.30;;;;;;5052601;28;20029;-88
2021/01/05 00:48:43;;;;;;;17.77;12.93;;;4.10;81.20;;;;;;5018896;28;20293;-87
2021/01/05 00:51:10;;;;;;;17.17;12.65;;;4.10;81.20;;;;;;5052742;28;20083;-87
2021/01/05 00:53:35;;;;;;;15.50;12.25;;;4.10;81.20;;;;;;5019084;28;20037;-87
2021/01/05 00:56:01;;;;;;;14.73;11.07;;;4.20;81.20;;;;;;5034982;28;20539;-87
2021/01/05 00:58:27;;;;;;;17.63;12.93;;;4.20;81.20;;;;;;5015066;28;20075;-87
2021/01/05 01:00:53;;;;;;;17.08;12.30;;;4.20;81.10;;;;;;5015338;28;20068;-87
2021/01/05 01:03:20;;;;;;;17.70;13.30;;;4.20;81.10;;;;;;5015118;28;20037;-87
2021/01/05 01:05:45;;;;;;;19.65;15.13;;;4.20;81.10;;;;;;4999269;28;20029;-87
2021/01/05 01:08:11;;;;;;;18.70;14.35;;;4.20;81.00;;;;;;5015359;28;20159;-87
2021/01/05 01:10:38;;;;;;;18.38;13.65;;;4.20;81.10;;;;;;5015222;28;20033;-87
2021/01/05 01:13:04;;;;;;;16.63;12.45;;;4.20;81.10;;;;;;4998578;28;20029;-87
2021/01/05 01:15:30;;;;;;;15.85;12.07;;;4.20;81.10;;;;;;5034444;28;20032;-87
2021/01/05 01:17:56;;;;;;;19.10;12.82;;;4.20;81.10;;;;;;5005011;28;20095;-87
2021/01/05 01:20:21;;;;;;;16.33;12.50;;;4.20;81.00;;;;;;5017698;28;20532;-87
2021/01/05 01:22:47;;;;;;;18.27;12.25;;;4.30;81.10;;;;;;5034834;28;20113;-87
2021/01/05 01:25:13;;;;;;;17.92;13.10;;;4.30;81.00;;;;;;5001261;28;20035;-87
2021/01/05 01:27:38;;;;;;;18.25;13.80;;;4.30;81.00;;;;;;5034510;28;20108;-87
2021/01/05 01:30:07;;;;;;;21.08;16.05;;;4.20;80.90;;;;;;5050835;28;20474;-87
2021/01/05 01:32:33;;;;;;;17.83;13.85;;;4.30;81.00;;;;;;5054815;28;20422;-87
2021/01/05 01:34:58;;;;;;;18.30;13.93;;;4.30;81.00;;;;;;5054283;28;20040;-88
2021/01/05 01:37:24;;;;;;;18.48;14.18;;;4.30;81.00;;;;;;5037253;28;20033;-87
2021/01/05 01:39:50;;;;;;;19.42;14.90;;;4.20;81.00;;;;;;5020931;28;20044;-87
2021/01/05 01:42:19;;;;;;;19.30;14.35;;;4.20;81.00;;;;;;5020637;28;20148;-88
2021/01/05 01:44:46;;;;;;;18.02;13.80;;;4.20;81.10;;;;;;5045406;28;20108;-87
2021/01/05 01:47:26;;;;;;;16.65;12.95;;;4.20;81.00;;;;;;5037166;28;20111;-87
2021/01/05 01:50:19;;;;;;;17.75;13.40;;;4.30;81.00;;;;;;5054356;28;20021;-88
2021/01/05 01:53:09;;;;;;;19.98;14.82;;;4.20;80.90;;;;;;5036434;28;20064;-89
2021/01/05 01:56:00;;;;;;;20.02;14.50;;;4.30;81.00;;;;;;5036767;28;20378;-89
2021/01/05 01:58:35;;;;;;;20.60;15.40;;;4.20;80.90;;;;;;5036017;28;20063;-88
2021/01/05 02:01:28;;;;;;;19.35;14.43;;;4.20;81.00;;;;;;5036685;28;20107;-88
2021/01/05 02:04:22;;;;;;;21.33;15.02;;;4.20;81.00;;;;;;5036914;28;20029;-87
2021/01/05 02:07:13;;;;;;;18.70;14.07;;;4.20;81.10;;;;;;5036533;28;20104;-88
2021/01/05 02:10:01;;;;;;;20.80;14.90;;;4.20;81.10;;;;;;5033717;28;20040;-89
2021/01/05 02:13:05;;;;;;;20.43;15.23;;;4.20;81.20;;;;;;5036018;28;20025;-88
2021/01/05 02:16:22;;;;;;;18.42;13.38;;;4.20;81.20;;;;;;5033971;28;20043;-87
2021/01/05 02:18:55;;;;;;;20.73;15.88;;;4.20;81.30;;;;;;4954651;28;20452;-87
2021/01/05 02:21:31;;;;;;;18.55;13.90;;;4.10;81.30;;;;;;4971443;28;20044;-87
2021/01/05 02:24:29;;;;;;;18.63;13.82;;;4.20;81.30;;;;;;5053908;28;20024;-87
2021/01/05 02:27:04;;;;;;;22.77;15.73;;;4.20;81.30;;;;;;5054124;28;20024;-87
2021/01/05 02:29:43;;;;;;;21.38;15.32;;;4.20;81.30;;;;;;5053848;28;20029;-88
2021/01/05 02:32:20;;;;;;;21.73;15.48;;;4.20;81.30;;;;;;5053395;28;20020;-87
2021/01/05 02:35:24;;;;;;;19.95;14.25;;;4.20;81.30;;;;;;5053760;28;20574;-88
2021/01/05 02:38:17;;;;;;;20.90;15.55;;;4.20;81.30;;;;;;5007892;28;20106;-87
2021/01/05 02:41:04;;;;;;;22.13;15.50;;;4.20;81.20;;;;;;5047977;28;20067;-87
2021/01/05 02:44:05;;;;;;;22.25;15.77;;;4.20;81.20;;;;;;5053589;28;20107;-87
2021/01/05 02:46:58;;;;;;;19.77;15.15;;;4.20;81.20;;;;;;5053640;28;20032;-87
2021/01/05 02:49:31;;;;;;;23.42;16.45;;;4.20;81.20;;;;;;5053181;28;20055;-88
2021/01/05 02:52:34;;;;;;;23.90;17.05;;;4.20;81.10;;;;;;5053848;28;20024;-87
2021/01/05 02:55:38;;;;;;;25.75;16.90;;;4.20;81.10;;;;;;5071615;28;20031;-87
2021/01/05 02:58:28;;;;;;;23.98;16.67;;;4.20;81.20;;;;;;5053882;28;20074;-87
2021/01/05 03:01:15;;;;;;;22.52;15.90;;;4.10;81.20;;;;;;5041680;28;20029;-87
2021/01/05 03:03:48;;;;;;;21.45;14.95;;;4.10;81.30;;;;;;5053298;28;20440;-86
2021/01/05 03:06:21;;;;;;;20.80;15.25;;;4.10;81.20;;;;;;5053360;28;20494;-87
2021/01/05 03:09:12;;;;;;;22.95;15.85;;;4.10;81.20;;;;;;5071808;28;20039;-88
2021/01/05 03:12:03;;;;;;;22.58;15.70;;;4.10;81.20;;;;;;5056999;28;20512;-88
2021/01/05 03:14:59;;;;;;;24.65;16.05;;;4.20;81.20;;;;;;5054193;28;20450;-87
2021/01/05 03:17:36;;;;;;;24.77;16.60;;;4.20;81.20;;;;;;5055724;28;20027;-87
2021/01/05 03:20:40;;;;;;;24.83;16.27;;;4.20;81.20;;;;;;5075109;28;20028;-88
2021/01/05 03:23:09;;;;;;;22.52;15.93;;;4.20;81.20;;;;;;4957469;28;20054;-88
2021/01/05 03:25:38;;;;;;;19.65;13.77;;;4.20;81.20;;;;;;5041223;28;20374;-87
2021/01/05 03:28:06;;;;;;;20.65;14.48;;;4.20;81.20;;;;;;5056733;28;20074;-87
2021/01/05 03:30:53;;;;;;;23.67;16.58;;;4.20;81.20;;;;;;5056577;28;20082;-88
2021/01/05 03:33:19;;;;;;;24.85;16.63;;;4.20;81.20;;;;;;5032442;28;20491;-88
2021/01/05 03:35:44;;;;;;;23.25;15.82;;;4.20;81.10;;;;;;5000943;28;20042;-87
2021/01/05 03:38:10;;;;;;;26.58;19.00;;;4.30;81.20;;;;;;5034334;28;20033;-88
2021/01/05 03:40:36;;;;;;;24.67;17.15;;;4.20;81.20;;;;;;5003593;28;20053;-87
2021/01/05 03:43:01;;;;;;;27.92;17.45;;;4.20;81.30;;;;;;5003922;28;20029;-88
2021/01/05 03:45:30;;;;;;;24.33;16.83;;;4.20;81.30;;;;;;5019538;28;20028;-89
2021/01/05 03:47:57;;;;;;;24.63;17.55;;;4.30;81.40;;;;;;5036606;28;20088;-87
2021/01/05 03:50:23;;;;;;;26.80;17.50;;;4.30;81.40;;;;;;5036307;28;20048;-87
2021/01/05 03:52:49;;;;;;;23.70;16.92;;;4.20;81.30;;;;;;5023477;28;20076;-87
2021/01/05 03:55:16;;;;;;;23.77;16.40;;;4.20;81.30;;;;;;4984203;28;20473;-88
2021/01/05 03:57:43;;;;;;;27.05;18.42;;;4.20;81.40;;;;;;5016633;28;20029;-87
2021/01/05 04:00:15;;;;;;;26.10;17.90;;;4.20;81.40;;;;;;5032819;28;20029;-87
2021/01/05 04:02:41;;;;;;;25.17;17.65;;;4.20;81.40;;;;;;5053992;28;20017;-88
2021/01/05 04:05:08;;;;;;;25.63;17.17;;;4.20;81.40;;;;;;5003457;28;20032;-88
2021/01/05 04:07:34;;;;;;;23.77;15.55;;;4.20;82.00;;;;;;5020164;28;20052;-87
2021/01/05 04:10:05;;;;;;;24.15;17.55;;;4.20;81.30;;;;;;5023549;28;20039;-87
2021/01/05 04:12:31;;;;;;;23.33;15.73;;;4.20;81.30;;;;;;5055811;28;20111;-87
2021/01/05 04:14:57;;;;;;;23.70;16.60;;;4.30;81.30;;;;;;5039541;28;20036;-89
2021/01/05 04:17:23;;;;;;;27.30;18.63;;;4.20;81.20;;;;;;5055639;28;20119;-89
2021/01/05 04:19:48;;;;;;;26.80;18.00;;;4.30;81.40;;;;;;5039511;28;20054;-89
2021/01/05 04:22:14;;;;;;;25.17;17.38;;;4.20;81.30;;;;;;5054847;28;20047;-90
2021/01/05 04:24:39;;;;;;;24.52;16.50;;;4.30;81.50;;;;;;5055911;28;20282;-89
2021/01/05 04:27:05;;;;;;;25.45;16.65;;;4.20;81.40;;;;;;5039160;28;20033;-89
2021/01/05 04:29:31;;;;;;;24.52;17.33;;;4.20;81.50;;;;;;5012291;28;20047;-90
2021/01/05 04:31:56;;;;;;;22.83;16.58;;;4.20;81.50;;;;;;5002932;28;20113;-89
2021/01/05 04:34:22;;;;;;;24.75;17.05;;;4.20;81.60;;;;;;5018998;28;20033;-89
2021/01/05 04:36:47;;;;;;;26.50;17.77;;;4.20;81.60;;;;;;4985941;28;20037;-89
2021/01/05 04:39:13;;;;;;;27.60;18.50;;;4.20;81.60;;;;;;4987215;28;20492;-89
2021/01/05 04:41:55;;;;;;;27.65;19.27;;;4.20;82.20;;;;;;5015726;28;20041;-90
2021/01/05 04:44:24;;;;;;;26.85;17.95;;;4.20;81.70;;;;;;5018742;28;20052;-89
2021/01/05 04:47:17;;;;;;;28.48;19.45;;;4.20;81.60;;;;;;5035726;28;20048;-89
2021/01/05 04:49:59;;;;;;;26.80;17.80;;;4.20;81.70;;;;;;5022021;28;20194;-90
2021/01/05 04:52:54;;;;;;;28.70;19.35;;;4.20;81.70;;;;;;5015591;28;20029;-89
2021/01/05 04:55:41;;;;;;;27.75;18.58;;;4.20;81.60;;;;;;5014491;28;20033;-90
2021/01/05 04:58:24;;;;;;;26.80;18.30;;;4.20;81.60;;;;;;5016562;28;20032;-90
2021/01/05 05:00:50;;;;;;;28.45;19.02;;;4.20;81.60;;;;;;5035521;28;20025;-89
2021/01/05 05:03:42;;;;;;;25.17;16.80;;;4.20;82.20;;;;;;5034619;28;20036;-90
2021/01/05 05:06:49;;;;;;;27.77;17.92;;;4.20;81.60;;;;;;5035110;28;20029;-89
2021/01/05 05:09:55;;;;;;;24.63;16.58;;;4.20;81.60;;;;;;5023278;28;20029;-89
2021/01/05 05:13:03;;;;;;;27.42;18.70;;;4.20;81.50;;;;;;5007036;28;20041;-89
2021/01/05 05:15:41;;;;;;;26.30;17.58;;;4.20;81.50;;;;;;5014365;28;20059;-89
2021/01/05 05:18:30;;;;;;;27.38;17.77;;;4.20;81.60;;;;;;5031606;28;20091;-89
2021/01/05 05:21:17;;;;;;;23.52;16.15;;;4.20;81.60;;;;;;5015175;28;20037;-89
2021/01/05 05:23:54;;;;;;;27.77;17.95;;;4.20;81.60;;;;;;5031779;28;20021;-90
2021/01/05 05:26:51;;;;;;;25.15;16.70;;;4.20;81.60;;;;;;5014753;28;20112;-89
2021/01/05 05:29:29;;;;;;;25.08;17.02;;;4.20;81.60;;;;;;5011543;28;20176;-89
2021/01/05 05:32:01;;;;;;;25.00;16.20;;;4.20;81.60;;;;;;5001921;28;20426;-89
2021/01/05 05:35:04;;;;;;;26.10;17.08;;;4.20;81.60;;;;;;5014348;28;20029;-89
2021/01/05 05:38:01;;;;;;;25.27;17.40;;;4.20;81.60;;;;;;5014548;28;20026;-90
2021/01/05 05:40:34;;;;;;;24.48;16.08;;;4.20;81.60;;;;;;5031846;28;20053;-90
2021/01/05 05:43:33;;;;;;;24.02;16.88;;;4.20;81.60;;;;;;5016047;28;20033;-90
2021/01/05 05:46:03;;;;;;;29.02;18.70;;;4.20;81.60;;;;;;5025249;28;20108;-90
2021/01/05 05:48:47;;;;;;;25.92;17.80;;;4.20;81.70;;;;;;5028302;28;20094;-90
2021/01/05 05:51:44;;;;;;;24.63;16.42;;;4.20;81.70;;;;;;5032669;28;20486;-90
2021/01/05 05:54:13;;;;;;;26.17;17.48;;;4.20;81.70;;;;;;4999603;28;20136;-89
2021/01/05 05:56:52;;;;;;;24.55;16.75;;;4.20;81.70;;;;;;5034332;28;20029;-89
2021/01/05 05:59:23;;;;;;;27.73;17.70;;;4.20;81.70;;;;;;5034388;28;20399;-90
2021/01/05 06:01:56;;;;;;;26.42;17.95;;;4.20;81.80;;;;;;5036956;28;20200;-91
2021/01/05 06:04:22;;;;;;;28.20;18.13;;;4.30;81.80;;;;;;5021112;28;20047;-91
2021/01/05 06:06:49;;;;;;;28.08;18.30;;;4.30;81.80;;;;;;5036577;28;20470;-90
2021/01/05 06:09:16;;;;;;;29.55;18.40;;;4.30;81.80;;;;;;5020447;28;20029;-91
2021/01/05 06:11:54;;;;;;;28.70;18.02;;;4.20;81.70;;;;;;5003837;28;20025;-90
2021/01/05 06:14:19;;;;;;;25.70;16.50;;;4.20;81.70;;;;;;5036232;28;20032;-91
2021/01/05 06:16:45;;;;;;;26.70;17.23;;;4.20;81.70;;;;;;5003735;28;20028;-91
2021/01/05 06:19:16;;;;;;;25.95;17.42;;;4.30;81.80;;;;;;5019948;28;20033;-91
2021/01/05 06:21:41;;;;;;;28.45;19.65;;;4.30;81.80;;;;;;5004653;28;20040;-90
2021/01/05 06:24:08;;;;;;;31.08;18.73;;;4.30;81.80;;;;;;5036485;28;20025;-90
2021/01/05 06:26:33;;;;;;;29.13;19.20;;;4.30;81.80;;;;;;5018826;28;20045;-89
2021/01/05 06:28:59;;;;;;;30.75;20.35;;;4.30;81.80;;;;;;5034044;28;20060;-89
2021/01/05 06:31:25;;;;;;;35.10;21.38;;;4.30;81.80;;;;;;5016405;28;20044;-90
2021/01/05 06:33:50;;;;;;;33.08;21.20;;;4.30;81.80;;;;;;5016567;28;20036;-91
2021/01/05 06:36:16;;;;;;;33.53;20.20;;;4.30;81.80;;;;;;5001441;28;20120;-90
2021/01/05 06:38:41;;;;;;;36.15;22.33;;;4.30;81.90;;;;;;5009372;23;20436;-86
2021/01/05 06:41:07;;;;;;;36.10;21.40;;;4.30;82.00;;;;;;5017443;28;20041;-91
2021/01/05 06:43:33;;;;;;;33.55;21.17;;;4.20;82.00;;;;;;5018474;28;20166;-91
2021/01/05 06:45:59;;;;;;;31.25;19.73;;;4.20;82.10;;;;;;5038803;28;20029;-91
2021/01/05 06:48:25;;;;;;;28.90;18.08;;;4.20;82.00;;;;;;5037961;28;20459;-90
2021/01/05 06:50:50;;;;;;;29.77;17.98;;;4.30;82.00;;;;;;5022285;28;20040;-92
2021/01/05 06:53:16;;;;;;;28.13;17.17;;;4.30;81.80;;;;;;5005825;28;20033;-91
2021/01/05 06:55:42;;;;;;;27.15;17.63;;;4.30;81.70;;;;;;5039116;28;20056;-91
2021/01/05 06:58:07;;;;;;;31.13;19.33;;;4.30;81.70;;;;;;5006407;28;20561;-90
2021/01/05 07:00:33;;;;;;;27.45;18.00;;;4.30;81.60;;;;;;5005366;28;20047;-91
2021/01/05 07:02:59;;;;;;;30.60;19.52;;;4.30;81.50;;;;;;5005623;28;20032;-92
2021/01/05 07:05:25;;;;;;;29.83;17.50;;;4.30;81.50;;;;;;5020922;28;20397;-91
2021/01/05 07:07:53;;;;;;;32.15;20.15;;;4.30;81.50;;;;;;5005165;28;20025;-92
2021/01/05 07:10:20;;;;;;;39.65;20.25;;;4.30;81.50;;;;;;5002466;28;20061;-90
2021/01/05 07:12:47;;;;;;;28.38;18.65;;;4.30;81.50;;;;;;5020734;28;20021;-91
2021/01/05 07:15:16;;;;;;;31.52;19.58;;;4.30;81.50;;;;;;5037689;28;20025;-90
2021/01/05 07:17:42;;;;;;;34.17;21.08;;;4.30;81.50;;;;;;5038495;28;20398;-90
2021/01/05 07:20:09;;;;;;;32.95;19.95;;;4.30;81.50;;;;;;5016837;28;20029;-90
2021/01/05 07:22:35;;;;;;;33.45;19.58;;;4.30;81.50;;;;;;5001149;28;20035;-90
2021/01/05 07:25:01;;;;;;;35.88;20.10;;;4.30;81.50;;;;;;5001809;28;20124;-89
2021/01/05 07:27:27;;;;;;;29.60;18.55;;;4.30;81.50;;;;;;5036011;28;20037;-89
2021/01/05 07:29:53;;;;;;;33.50;19.75;;;4.30;81.50;;;;;;5037429;28;20113;-89
2021/01/05 07:32:19;;;;;;;34.95;20.67;;;4.30;81.50;;;;;;5054886;28;20033;-88
2021/01/05 07:34:45;;;;;;;30.83;18.80;;;4.30;81.50;;;;;;5036897;28;20048;-88
2021/01/05 07:37:16;;;;;;;33.47;20.38;;;4.30;81.50;;;;;;5017317;28;20693;-88
2021/01/05 07:39:42;;;;;;;34.78;20.77;;;4.40;81.60;;;;;;5048105;28;20526;-89
2021/01/05 07:42:26;;;;;;;31.30;19.05;;;4.30;81.60;;;;;;5015913;28;20064;-88
2021/01/05 07:44:54;;;;;;;36.40;20.42;;;4.40;81.60;;;;;;5033428;28;20475;-88
2021/01/05 07:47:22;;;;;;;36.67;20.30;;;4.30;81.50;;;;;;5015224;28;20029;-88
2021/01/05 07:49:48;;;;;;;29.27;18.10;;;4.30;81.60;;;;;;5016926;28;20025;-89
2021/01/05 07:52:35;;;;;;;32.28;19.80;;;4.30;81.60;;;;;;5004614;28;20048;-88
2021/01/05 07:55:04;;;;;;;32.65;19.58;;;4.30;81.50;;;;;;4995519;28;20030;-88
2021/01/05 07:57:29;;;;;;;31.73;19.40;;;4.30;81.50;;;;;;4996660;28;20064;-89
2021/01/05 07:59:55;;;;;;;30.38;19.08;;;4.30;81.50;;;;;;4971396;28;20053;-88
2021/01/05 08:02:21;;;;;;;32.90;19.13;;;4.30;81.50;;;;;;5016920;28;20029;-88
2021/01/05 08:04:46;;;;;;;32.08;19.30;;;4.40;81.60;;;;;;5000549;28;20451;-89
2021/01/05 08:07:13;;;;;;;27.67;18.23;;;4.40;81.70;;;;;;5016824;28;20022;-88
2021/01/05 08:09:42;;;;;;;33.58;20.10;;;4.30;81.60;;;;;;5016681;28;20068;-89
2021/01/05 08:12:19;;;;;;;31.27;18.80;;;4.40;81.60;;;;;;5000494;28;20053;-89
2021/01/05 08:14:45;;;;;;;35.85;19.35;;;4.40;81.70;;;;;;5016211;28;20041;-89
2021/01/05 08:17:11;;;;;;;28.75;17.45;;;4.40;81.60;;;;;;4999135;28;20060;-88
2021/01/05 08:19:44;;;;;;;31.42;18.17;;;4.30;81.50;;;;;;4995634;28;20646;-89
2021/01/05 08:22:10;;;;;;;30.58;17.98;;;4.40;81.50;;;;;;5008618;28;20026;-88
2021/01/05 08:24:35;;;;;;;34.25;19.92;;;4.40;81.50;;;;;;5011472;28;20044;-88
2021/01/05 08:27:01;;;;;;;31.00;18.83;;;4.40;81.50;;;;;;4999262;28;20034;-88
2021/01/05 08:29:28;;;;;;;31.77;19.08;;;4.40;81.50;;;;;;4981039;28;20032;-88
2021/01/05 08:31:54;;;;;;;30.63;17.73;;;4.40;81.50;;;;;;5017012;28;20022;-89
2021/01/05 08:34:20;;;;;;;28.75;18.05;;;4.40;81.40;;;;;;5013555;28;20029;-88
2021/01/05 08:36:46;;;;;;;31.13;17.05;;;4.40;81.40;;;;;;4981959;28;20034;-88
2021/01/05 08:39:13;;;;;;;31.55;18.63;;;4.40;81.40;;;;;;5006959;28;20410;-88
2021/01/05 08:41:43;;;;;;;31.10;18.63;;;4.40;81.50;;;;;;5018379;28;20520;-88
2021/01/05 08:44:09;;;;;;;28.08;17.42;;;4.40;81.50;;;;;;5019954;28;20032;-88
2021/01/05 08:46:35;;;;;;;31.17;19.02;;;4.40;81.50;;;;;;5053026;28;20483;-88
2021/01/05 08:49:01;;;;;;;34.03;20.27;;;4.50;81.60;;;;;;5016692;28;20087;-86
2021/01/05 08:51:28;;;;;;;35.25;19.90;;;4.40;81.60;;;;;;5016470;28;20025;-88
2021/01/05 08:53:53;;;;;;;37.05;21.42;;;4.40;81.70;;;;;;5019755;28;20053;-87
2021/01/05 08:56:25;;;;;;;37.75;22.13;;;4.40;81.70;;;;;;5035685;28;20032;-88
2021/01/05 08:58:50;;;;;;;35.85;20.02;;;4.40;81.70;;;;;;5036088;28;20542;-89
2021/01/05 09:01:17;;;;;;;31.92;19.33;;;4.30;81.70;;;;;;5035387;28;20129;-88
2021/01/05 09:03:42;;;;;;;36.38;21.17;;;4.40;81.60;;;;;;5035803;28;20027;-88
2021/01/05 09:06:09;;;;;;;40.78;20.63;;;4.40;81.70;;;;;;5035956;28;20104;-88
2021/01/05 09:08:35;;;;;;;36.63;20.85;;;4.40;81.60;;;;;;5033894;28;20671;-88
2021/01/05 09:11:04;;;;;;;36.42;21.33;;;4.30;81.60;;;;;;5003059;28;20487;-88
2021/01/05 09:13:30;;;;;;;35.45;21.15;;;4.40;81.70;;;;;;5035689;28;20048;-88
2021/01/05 09:15:56;;;;;;;37.38;21.30;;;4.40;81.70;;;;;;4999608;28;20565;-88
2021/01/05 09:18:22;;;;;;;35.45;20.20;;;4.30;81.70;;;;;;5015718;28;20037;-87
2021/01/05 09:20:54;;;;;;;38.17;21.30;;;4.40;81.70;;;;;;5021287;28;20045;-87
2021/01/05 09:23:22;;;;;;;36.88;20.63;;;4.40;81.80;;;;;;5016143;28;20048;-87
2021/01/05 09:25:53;;;;;;;30.67;18.27;;;4.40;81.70;;;;;;5000598;28;20502;-87
2021/01/05 09:28:20;;;;;;;26.98;16.75;;;4.40;81.60;;;;;;5020594;28;20021;-87
2021/01/05 09:30:51;;;;;;;31.85;19.25;;;4.40;81.50;;;;;;5035244;28;20059;-87
2021/01/05 09:33:24;;;;;;;36.90;20.98;;;4.50;82.10;;;;;;5035026;28;20083;-87
2021/01/05 09:35:51;;;;;;;29.88;18.17;;;4.40;81.40;;;;;;5047844;28;20033;-87
2021/01/05 09:38:17;;;;;;;31.98;18.50;;;4.40;81.50;;;;;;5018534;28;20455;-88
2021/01/05 09:40:42;;;;;;;30.60;18.38;;;4.40;81.40;;;;;;5018748;28;20131;-86
2021/01/05 09:43:11;;;;;;;29.75;18.02;;;4.50;81.50;;;;;;5019166;28;20367;-89
2021/01/05 09:45:37;;;;;;;35.10;20.02;;;4.50;81.40;;;;;;5035476;28;20029;-87
2021/01/05 09:48:11;;;;;;;31.23;18.65;;;4.50;81.40;;;;;;5032780;28;20494;-88
2021/01/05 09:50:39;;;;;;;29.63;17.67;;;4.50;81.40;;;;;;5034089;28;20057;-86
2021/01/05 09:53:06;;;;;;;32.50;18.95;;;4.50;81.40;;;;;;5035339;28;20390;-89
2021/01/05 09:55:32;;;;;;;28.85;17.63;;;4.50;81.50;;;;;;5026078;28;20029;-86
2021/01/05 09:57:59;;;;;;;31.30;18.65;;;4.50;81.50;;;;;;5012446;28;20029;-88
2021/01/05 10:00:25;;;;;;;25.25;17.13;;;4.50;81.50;;;;;;5019403;28;20029;-87
2021/01/05 10:02:51;;;;;;;29.38;18.25;;;4.50;81.40;;;;;;5046842;28;20024;-87
2021/01/05 10:05:29;;;;;;;25.75;15.95;;;4.50;81.30;;;;;;5018318;28;20029;-90
2021/01/05 10:07:56;;;;;;;31.80;19.65;;;4.50;81.30;;;;;;5016048;28;20053;-89
2021/01/05 10:10:28;;;;;;;30.58;19.48;;;4.50;81.20;;;;;;4999360;28;20033;-90
2021/01/05 10:13:00;;;;;;;29.83;18.80;;;4.50;81.20;;;;;;5000026;28;20486;-89
2021/01/05 10:15:51;;;;;;;;;;;;;;;;;;;;;
2021/01/05 10:18:24;;;;;;;26.48;17.58;;;4.50;81.30;;;;;;5027957;28;20037;-90
2021/01/05 10:20:55;;;;;;;32.22;19.48;;;4.50;81.40;;;;;;5025816;28;20093;-89
2021/01/05 10:23:23;;;;;;;30.10;18.40;;;4.50;81.40;;;;;;5017541;28;20105;-89
2021/01/05 10:25:52;;;;;;;30.57;19.13;;;4.50;81.40;;;;;;5031878;28;20025;-90
2021/01/05 10:28:34;;;;;;;34.42;20.73;;;4.50;81.50;;;;;;5001875;28;20040;-92
2021/01/05 10:31:16;;;;;;;;;;;;;;;;;;;;;
2021/01/05 10:33:58;;;;;;;;;;;;;;;;;;;;;
2021/01/05 10:37:05;;;;;;;25.98;15.98;;;4.50;81.30;;;;;;5031842;28;20032;-90
2021/01/05 10:39:30;;;;;;;34.42;20.15;;;4.60;81.30;;;;;;5031661;28;20144;-89
2021/01/05 10:42:17;;;;;;;26.80;16.40;;;4.60;81.30;;;;;;5034671;28;20112;-90
2021/01/05 10:45:02;;;;;;;;;;;;;;;;;;;;;
2021/01/05 10:51:43;;;;;;;28.48;18.05;;;4.60;81.40;;;;;;5035871;28;20082;-91
2021/01/05 10:54:43;;;;;;;31.52;19.25;;;4.60;81.40;;;;;;5021850;28;20041;-88
2021/01/05 10:57:10;;;;;;;35.63;20.80;;;4.60;81.40;;;;;;4987154;28;20033;-86
2021/01/05 10:59:42;;;;;;;35.55;20.48;;;4.60;81.40;;;;;;5020934;28;20029;-86
2021/01/05 11:02:09;;;;;;;28.15;17.55;;;4.60;81.50;;;;;;5051767;28;20029;-86
2021/01/05 11:04:36;;;;;;;25.80;16.75;;;4.60;81.40;;;;;;5033718;28;20021;-86
2021/01/05 11:07:10;;;;;;;28.05;17.52;;;4.60;81.40;;;;;;5019516;28;20026;-86
2021/01/05 11:09:36;;;;;;;31.42;18.73;;;4.60;81.40;;;;;;5028520;28;20029;-86
2021/01/05 11:12:10;;;;;;;28.90;17.40;;;4.70;81.40;;;;;;5017310;28;20502;-86
2021/01/05 11:14:36;;;;;;;30.38;17.38;;;4.70;81.50;;;;;;5037660;28;20025;-86
2021/01/05 11:17:02;;;;;;;32.22;18.17;;;4.70;81.40;;;;;;5017151;28;20040;-86
2021/01/05 11:19:27;;;;;;;32.08;17.95;;;4.70;81.30;;;;;;5027059;28;20037;-86
2021/01/05 11:21:55;;;;;;;31.30;18.65;;;4.70;81.30;;;;;;4998563;28;20024;-89
2021/01/05 11:24:44;;;;;;;;;;;;;;;;;;;;;
2021/01/05 11:30:05;;;;;;;30.98;17.70;;;4.70;81.20;;;;;;5035823;28;20083;-89
2021/01/05 11:32:34;;;;;;;32.17;19.75;;;4.70;81.20;;;;;;5010854;28;20478;-89
2021/01/05 11:34:59;;;;;;;32.78;18.63;;;4.60;81.10;;;;;;5021721;28;20693;-89
2021/01/05 11:37:39;;;;;;;30.38;18.40;;;4.70;81.20;;;;;;5017104;28;20036;-88
2021/01/05 11:40:05;;;;;;;33.75;20.70;;;4.60;81.10;;;;;;5009359;28;20032;-88
2021/01/05 11:42:31;;;;;;;33.03;19.90;;;4.60;81.10;;;;;;5017124;28;20029;-89
2021/01/05 11:44:57;;;;;;;30.13;18.42;;;4.60;81.20;;;;;;5034915;28;20024;-90
2021/01/05 11:47:24;;;;;;;30.10;19.33;;;4.60;81.20;;;;;;5004339;28;20029;-89
2021/01/05 11:49:50;;;;;;;35.38;21.33;;;4.60;81.20;;;;;;5004462;28;20139;-88
2021/01/05 11:52:16;;;;;;;30.00;18.13;;;4.60;81.10;;;;;;5020991;28;20040;-89
2021/01/05 11:54:42;;;;;;;32.95;18.98;;;4.70;81.10;;;;;;5037059;28;20021;-88
2021/01/05 11:57:08;;;;;;;30.40;19.10;;;4.60;81.00;;;;;;5020384;28;20060;-87
2021/01/05 11:59:34;;;;;;;31.50;18.35;;;4.60;81.00;;;;;;5020774;28;20067;-89
2021/01/05 12:02:01;;;;;;;30.83;18.90;;;4.70;81.00;;;;;;5019841;28;20025;-87
2021/01/05 12:04:30;;;;;;;34.45;19.75;;;4.70;81.00;;;;;;5037408;28;20018;-88
2021/01/05 12:06:59;;;;;;;30.98;19.73;;;4.60;80.90;;;;;;5031210;28;20025;-88
2021/01/05 12:09:27;;;;;;;31.85;19.45;;;4.70;81.00;;;;;;5036312;28;20056;-89
2021/01/05 12:12:01;;;;;;;31.88;19.25;;;4.60;81.00;;;;;;5036713;28;20032;-89
2021/01/05 12:14:29;;;;;;;33.17;20.08;;;4.70;81.10;;;;;;5015295;28;20083;-88
2021/01/05 12:17:03;;;;;;;30.73;18.30;;;4.70;81.00;;;;;;5017541;28;20033;-88
2021/01/05 12:19:36;;;;;;;33.33;19.27;;;4.70;81.00;;;;;;5000007;28;20308;-88
2021/01/05 12:22:03;;;;;;;31.02;18.10;;;4.70;81.00;;;;;;5030447;28;20017;-89
2021/01/05 12:24:31;;;;;;;28.52;17.15;;;4.70;80.90;;;;;;5023128;28;20029;-87
2021/01/05 12:26:58;;;;;;;30.30;18.60;;;4.70;80.90;;;;;;5019961;28;20028;-88
2021/01/05 12:29:27;;;;;;;28.60;17.23;;;4.70;81.00;;;;;;5020058;28;20497;-87
2021/01/05 12:31:56;;;;;;;29.77;18.65;;;4.70;81.00;;;;;;5036167;28;20478;-88
2021/01/05 12:34:26;;;;;;;35.30;20.17;;;4.70;81.00;;;;;;5033041;28;20078;-87
2021/01/05 12:36:53;;;;;;;33.33;19.45;;;4.60;81.00;;;;;;5053517;28;20037;-87
2021/01/05 12:39:24;;;;;;;32.17;19.13;;;4.60;81.00;;;;;;5039183;23;20102;-86
2021/01/05 12:41:50;;;;;;;28.77;17.63;;;4.60;81.10;;;;;;5035831;28;20125;-86
2021/01/05 12:44:25;;;;;;;31.08;19.13;;;4.60;81.10;;;;;;5035682;28;20025;-87
2021/01/05 12:46:52;;;;;;;30.27;17.88;;;4.70;81.20;;;;;;5038943;28;20021;-87
2021/01/05 12:49:18;;;;;;;26.27;16.52;;;4.70;81.20;;;;;;5029566;28;20481;-87
2021/01/05 12:51:45;;;;;;;30.45;17.83;;;4.70;81.10;;;;;;5053585;28;20478;-88
2021/01/05 12:54:18;;;;;;;30.48;17.98;;;4.70;81.20;;;;;;5023577;28;20516;-88
2021/01/05 12:56:44;;;;;;;26.95;16.63;;;4.70;81.20;;;;;;5043258;28;20027;-87
2021/01/05 12:59:12;;;;;;;25.73;16.55;;;4.70;81.20;;;;;;5019590;28;20378;-88
2021/01/05 13:01:38;;;;;;;30.02;18.02;;;4.70;81.10;;;;;;5053902;28;20501;-88
2021/01/05 13:04:04;;;;;;;29.88;17.83;;;4.80;81.00;;;;;;5039318;28;20040;-88
2021/01/05 13:06:31;;;;;;;28.23;18.30;;;4.70;80.80;;;;;;5038714;28;20517;-88
2021/01/05 13:08:57;;;;;;;29.35;18.42;;;4.80;80.80;;;;;;5071749;28;20063;-88
2021/01/05 13:11:25;;;;;;;28.58;18.48;;;4.70;80.70;;;;;;5055387;28;20025;-88
2021/01/05 13:13:52;;;;;;;30.17;18.47;;;4.70;80.70;;;;;;5055666;28;20466;-87
2021/01/05 13:16:21;;;;;;;33.83;20.33;;;4.70;80.70;;;;;;5053984;28;20060;-93